»·PEaware :: SWA1339 KMDW-KAUS

SWA1339 :: KMDW-KAUS

FLIGHT INFORMATION

Flight Status: Arrived
Operator:
Southwest Airlines
More flights by this operator :: More flights under this callsign
Pilot: Andrew Jones (13363)
Aircraft: BOEING 737-800
(B738)
More flights by this aircraft type
Origin: KMDW Chicago-Midway
United States
Destination: KAUS Austin Bergstrom Intl
United States
More flights between these airports :: More routes between these airports
Route: ACITO ADELL ARLYN STL FSM STVEY SEWZY3
File this flight plan on PilotEdge
Remarks:
Altitude:
(Current/Filed)
34,000ft
Speed:
(Current/Filed)
460kts
Departed: 19-Jun-17 02:44 PM
Arrived: 19-Jun-17 05:51 PM
Distance/Time
Traveled:
844nm/3:07
Distance/Time
To Go:
Arrived

Flight Plot

Page will automatically refresh every two minutes.

Flight plan parsing failed; only flown route is shown


Map Options




Map Legend


Flown Route
Filed Route
Departure Airport
Arrival Airport
Navaid (VOR, NDB)
Fix

Horizontal Profiles

Position Reports

Time Latitude Longitude Heading Altitude Ground
Speed
19-Jun-17 14:45 41.779707 -87.743241 217 611ft 10kts
19-Jun-17 14:46 41.779382 -87.743949 312 613ft 7kts
19-Jun-17 14:47 41.798904 -87.772904 298 1300ft 147kts
19-Jun-17 14:48 41.780183 -87.817324 195 3005ft 171kts
19-Jun-17 14:49 41.730103 -87.831805 198 3805ft 191kts
19-Jun-17 14:50 41.675487 -87.854200 202 5120ft 240kts
19-Jun-17 14:51 41.625065 -87.918425 230 7101ft 274kts
19-Jun-17 14:52 41.569300 -87.988100 227 8707ft 281kts
19-Jun-17 14:53 41.510198 -88.056585 226 10239ft 298kts
19-Jun-17 14:54 41.443217 -88.133130 225 12221ft 340kts
19-Jun-17 14:55 41.360967 -88.199364 204 14351ft 370kts
19-Jun-17 14:56 41.263389 -88.243852 203 16384ft 380kts
19-Jun-17 14:57 41.166090 -88.287861 203 18324ft 391kts
19-Jun-17 14:58 41.062702 -88.334344 204 20324ft 403kts
19-Jun-17 14:59 40.961655 -88.379731 204 22225ft 414kts
19-Jun-17 15:00 40.861305 -88.424691 205 24032ft 419kts
19-Jun-17 15:01 40.751852 -88.473334 206 25880ft 421kts
19-Jun-17 15:02 40.643191 -88.521545 207 27652ft 416kts
19-Jun-17 15:03 40.536774 -88.568660 209 29339ft 404kts
19-Jun-17 15:04 40.434804 -88.613697 210 30924ft 384kts
19-Jun-17 15:05 40.340956 -88.655046 212 32348ft 358kts
19-Jun-17 15:06 40.273225 -88.722523 239 33351ft 298kts
19-Jun-17 15:07 40.214854 -88.797265 239 33626ft 299kts
19-Jun-17 15:08 40.156158 -88.872243 240 33972ft 297kts
19-Jun-17 15:09 40.096891 -88.948356 239 34053ft 313kts
19-Jun-17 15:10 40.033640 -89.029171 238 34066ft 333kts
19-Jun-17 15:11 39.966416 -89.114539 237 34062ft 357kts
19-Jun-17 15:12 39.896501 -89.202963 236 34057ft 381kts
19-Jun-17 15:13 39.819815 -89.299571 236 34034ft 404kts
19-Jun-17 15:14 39.738894 -89.401193 235 34030ft 428kts
19-Jun-17 15:15 39.653488 -89.507768 235 33988ft 429kts
19-Jun-17 15:16 39.568570 -89.613559 235 33985ft 430kts
19-Jun-17 15:17 39.484674 -89.717840 234 33999ft 431kts
19-Jun-17 15:18 39.399745 -89.823051 234 33998ft 431kts
19-Jun-17 15:19 39.314351 -89.928484 234 34024ft 431kts
19-Jun-17 15:20 39.229981 -90.032005 235 33988ft 414kts
19-Jun-17 15:21 39.146750 -90.134286 235 34024ft 419kts
19-Jun-17 15:22 39.063743 -90.235727 235 34004ft 419kts
19-Jun-17 15:23 38.981008 -90.336465 235 34008ft 419kts
19-Jun-17 15:24 38.898079 -90.437114 235 34001ft 419kts
19-Jun-17 15:25 38.815066 -90.535427 234 33983ft 421kts
19-Jun-17 15:26 38.730071 -90.633995 234 33989ft 421kts
19-Jun-17 15:27 38.647211 -90.729779 233 33997ft 421kts
19-Jun-17 15:28 38.561831 -90.828156 233 33997ft 420kts
19-Jun-17 15:29 38.477020 -90.925545 233 33995ft 420kts
19-Jun-17 15:30 38.391570 -91.023347 233 34006ft 420kts
19-Jun-17 15:31 38.305809 -91.121185 233 34022ft 420kts
19-Jun-17 15:32 38.219754 -91.219025 233 34022ft 420kts
19-Jun-17 15:33 38.133957 -91.316254 233 34022ft 420kts
19-Jun-17 15:34 38.048681 -91.411955 234 34023ft 419kts
19-Jun-17 15:35 37.962790 -91.509012 234 34048ft 419kts
19-Jun-17 15:36 37.880640 -91.601426 234 34032ft 419kts
19-Jun-17 15:37 37.796314 -91.695822 233 34050ft 421kts
19-Jun-17 15:38 37.710559 -91.791440 234 34048ft 420kts
19-Jun-17 15:39 37.624491 -91.887116 233 34074ft 418kts
19-Jun-17 15:40 37.538137 -91.982806 233 34075ft 419kts
19-Jun-17 15:41 37.451709 -92.078257 233 34075ft 419kts
19-Jun-17 15:42 37.365221 -92.173479 233 34074ft 419kts
19-Jun-17 15:43 37.278577 -92.268566 233 34074ft 419kts
19-Jun-17 15:44 37.192393 -92.362849 233 34075ft 419kts
19-Jun-17 15:45 37.105521 -92.457596 233 34101ft 419kts
19-Jun-17 15:46 37.018810 -92.551850 233 34101ft 419kts
19-Jun-17 15:47 36.932274 -92.645630 233 34101ft 419kts
19-Jun-17 15:48 36.849776 -92.734771 232 34088ft 420kts
19-Jun-17 15:49 36.761906 -92.831787 227 34105ft 443kts
19-Jun-17 15:50 36.666482 -92.932685 227 34166ft 467kts
19-Jun-17 15:51 36.566797 -93.038792 227 34143ft 479kts
19-Jun-17 15:52 36.467668 -93.144272 227 34131ft 479kts
19-Jun-17 15:53 36.367886 -93.250608 226 34128ft 479kts
19-Jun-17 15:54 36.268009 -93.355702 227 34133ft 479kts
19-Jun-17 15:55 36.170381 -93.458774 227 34111ft 468kts
19-Jun-17 15:56 36.071888 -93.562499 227 34106ft 468kts
19-Jun-17 15:57 35.975668 -93.663391 226 34124ft 469kts
19-Jun-17 15:58 35.879817 -93.763475 226 34122ft 469kts
19-Jun-17 15:59 35.782995 -93.864282 226 34100ft 470kts
19-Jun-17 16:00 35.684258 -93.966678 226 34099ft 470kts
19-Jun-17 16:01 35.585906 -94.068424 225 34099ft 471kts
19-Jun-17 16:02 35.486757 -94.170551 225 34049ft 470kts
19-Jun-17 16:03 35.387418 -94.271695 218 34042ft 474kts
19-Jun-17 16:04 35.276082 -94.357377 216 34052ft 479kts
19-Jun-17 16:05 35.164593 -94.442263 216 34055ft 480kts
19-Jun-17 16:06 35.053065 -94.526889 215 34056ft 480kts
19-Jun-17 16:07 34.941796 -94.610741 216 33994ft 476kts
19-Jun-17 16:08 34.837776 -94.689406 215 33911ft 478kts
19-Jun-17 16:09 34.728057 -94.771997 214 33913ft 478kts
19-Jun-17 16:10 34.616381 -94.855437 215 33910ft 477kts
19-Jun-17 16:11 34.504362 -94.939187 215 33912ft 477kts
19-Jun-17 16:12 34.392890 -95.022237 215 33915ft 477kts
19-Jun-17 16:13 34.280870 -95.105330 215 34022ft 478kts
19-Jun-17 16:14 34.168720 -95.188307 215 34026ft 477kts
19-Jun-17 16:15 34.056970 -95.270731 214 34028ft 477kts
19-Jun-17 16:16 34.016986 -95.300162 214 34029ft 477kts
19-Jun-17 16:17 34.016986 -95.300162 214 34029ft 477kts
19-Jun-17 16:18 34.016986 -95.300162 214 34029ft 477kts
19-Jun-17 16:19 34.016986 -95.300162 214 34029ft 477kts
19-Jun-17 16:19 34.016986 -95.300162 214 34029ft 477kts
19-Jun-17 16:21 34.016986 -95.300162 214 34029ft 477kts
19-Jun-17 16:22 34.016986 -95.300162 214 34029ft 477kts
19-Jun-17 16:23 34.016986 -95.300162 214 34029ft 477kts
19-Jun-17 16:24 34.016986 -95.300162 214 34029ft 477kts
19-Jun-17 16:25 34.016986 -95.300162 214 34029ft 477kts
19-Jun-17 16:25 34.016986 -95.300162 214 34029ft 477kts
19-Jun-17 16:26 34.016986 -95.300162 214 34029ft 477kts
19-Jun-17 16:27 34.016986 -95.300162 214 34029ft 477kts
19-Jun-17 16:28 33.972118 -95.333112 214 34025ft 474kts
19-Jun-17 16:29 33.870921 -95.407287 214 34015ft 471kts
19-Jun-17 16:30 33.760702 -95.487942 214 34017ft 471kts
19-Jun-17 16:31 33.649706 -95.568851 214 34018ft 471kts
19-Jun-17 16:32 33.539015 -95.649236 214 34028ft 472kts
19-Jun-17 16:33 33.434946 -95.724705 213 34020ft 471kts
19-Jun-17 16:34 33.323931 -95.804960 213 34023ft 471kts
19-Jun-17 16:35 33.213267 -95.884674 213 34024ft 470kts
19-Jun-17 16:36 33.102150 -95.964510 213 34026ft 470kts
19-Jun-17 16:37 32.991271 -96.043884 213 34028ft 470kts
19-Jun-17 16:38 32.881980 -96.121966 213 34019ft 470kts
19-Jun-17 16:39 32.775413 -96.197801 213 34018ft 470kts
19-Jun-17 16:40 32.664401 -96.276579 213 33996ft 471kts
19-Jun-17 16:41 32.553192 -96.355307 213 33995ft 470kts
19-Jun-17 16:42 32.441760 -96.433996 213 33995ft 470kts
19-Jun-17 16:43 32.331221 -96.511809 213 33997ft 470kts
19-Jun-17 16:44 32.219819 -96.589955 213 33999ft 469kts
19-Jun-17 16:45 32.110812 -96.666289 212 33998ft 470kts
19-Jun-17 16:46 32.000294 -96.743387 212 34000ft 469kts
19-Jun-17 16:47 31.889978 -96.820279 212 33987ft 467kts
19-Jun-17 16:48 31.798868 -96.883246 212 33989ft 469kts
19-Jun-17 16:49 31.687644 -96.947645 189 33989ft 470kts
19-Jun-17 16:50 31.559740 -96.952534 177 34009ft 461kts
19-Jun-17 16:51 31.438478 -96.986882 203 34010ft 458kts
19-Jun-17 16:52 31.322628 -97.040770 203 33998ft 456kts
19-Jun-17 16:53 31.209962 -97.104290 215 34004ft 453kts
19-Jun-17 16:54 31.105258 -97.182817 216 33999ft 452kts
19-Jun-17 16:55 31.001160 -97.261166 215 33999ft 452kts
19-Jun-17 16:56 30.929766 -97.313314 207 33978ft 455kts
19-Jun-17 16:57 30.929766 -97.313314 207 33978ft 455kts
19-Jun-17 16:58 30.929766 -97.313314 207 33978ft 455kts
19-Jun-17 16:59 30.929766 -97.313314 207 33978ft 455kts
19-Jun-17 17:00 30.929766 -97.313314 207 33978ft 455kts
19-Jun-17 17:01 30.929766 -97.313314 207 33978ft 455kts
19-Jun-17 17:02 30.929766 -97.313314 207 33978ft 455kts
19-Jun-17 17:03 30.929766 -97.313314 207 33978ft 455kts
19-Jun-17 17:05 30.929766 -97.313314 207 33978ft 455kts
19-Jun-17 17:06 30.891550 -97.338345 220 33454ft 462kts
19-Jun-17 17:07 30.857908 -97.428474 264 31839ft 449kts
19-Jun-17 17:08 30.840759 -97.569647 264 29469ft 438kts
19-Jun-17 17:09 30.823604 -97.702823 264 27166ft 428kts
19-Jun-17 17:10 30.813781 -97.835164 294 24443ft 396kts
19-Jun-17 17:11 30.892262 -97.887617 353 21224ft 324kts
19-Jun-17 17:12 30.976833 -97.901711 353 18070ft 301kts
19-Jun-17 17:13 31.057561 -97.915232 353 15035ft 292kts
19-Jun-17 17:14 31.125144 -97.926131 5 12447ft 281kts
19-Jun-17 17:15 31.125144 -97.926131 5 12447ft 281kts
19-Jun-17 17:16 31.125144 -97.926131 5 12447ft 281kts
19-Jun-17 17:17 31.125144 -97.926131 5 12447ft 281kts
19-Jun-17 17:45 30.700882 -97.656265 183 4464ft 270kts
19-Jun-17 17:46 30.627370 -97.662487 183 3841ft 258kts
19-Jun-17 17:47 30.558254 -97.668654 180 3231ft 250kts
19-Jun-17 17:48 30.489967 -97.673799 183 2989ft 241kts
19-Jun-17 17:49 30.427298 -97.679930 183 3025ft 228kts
19-Jun-17 17:50 30.365628 -97.686052 183 3005ft 202kts
19-Jun-17 17:51 30.313788 -97.682185 177 2491ft 181kts
19-Jun-17 17:52 30.266839 -97.680750 178 1511ft 150kts
19-Jun-17 17:53 30.224614 -97.679598 178 759ft 154kts
19-Jun-17 17:54 30.199126 -97.678273 130 485ft 16kts
19-Jun-17 17:55 30.198910 -97.676479 85 485ft 5kts
19-Jun-17 17:56 30.198944 -97.674533 85 485ft 16kts
19-Jun-17 17:57 30.199718 -97.669812 358 485ft 8kts
19-Jun-17 17:58 30.200697 -97.669802 18 485ft 0kts
19-Jun-17 17:59 30.201335 -97.669352 49 485ft 1kts
19-Jun-17 18:00 30.200980 -97.668462 112 485ft 0kts
19-Jun-17 18:01 30.201411 -97.668092 15 486ft 0kts
19-Jun-17 18:02 30.201411 -97.668092 15 486ft 0kts
19-Jun-17 18:03 30.201411 -97.668092 15 486ft 0kts

Navigation Log

Ident Type
Flight plan parsing failed, navigation log unavailable